createdAt,value
2019-05-20T00:00:00.823Z,3.37
2019-05-20T00:02:33.977Z,5.15
2019-05-20T00:07:37.979Z,3.98
2019-05-20T00:10:10.781Z,5.12
2019-05-20T00:12:43.813Z,4.35
2019-05-20T00:15:17.109Z,4.40
2019-05-20T00:17:50.630Z,4.67
2019-05-20T00:20:23.357Z,3.12
2019-05-20T00:22:55.954Z,4.17
2019-05-20T00:25:28.808Z,4.90
2019-05-20T00:28:01.304Z,3.77
2019-05-20T00:30:33.953Z,5.25
2019-05-20T00:33:06.663Z,3.75
2019-05-20T00:35:39.213Z,2.95
2019-05-20T00:38:11.726Z,3.65
2019-05-20T00:40:44.683Z,4.83
2019-05-20T00:43:17.151Z,3.90
2019-05-20T00:45:50.541Z,4.97
2019-05-20T00:48:23.050Z,2.92
2019-05-20T00:50:55.986Z,3.20
2019-05-20T00:53:28.577Z,3.87
2019-05-20T00:56:01.597Z,4.40
2019-05-20T00:58:34.292Z,3.22
2019-05-20T01:01:07.132Z,5.05
2019-05-20T01:03:39.768Z,4.78
2019-05-20T01:06:12.369Z,2.72
2019-05-20T01:08:45.265Z,2.77
2019-05-20T01:11:19.039Z,4.20
2019-05-20T01:13:51.628Z,3.25
2019-05-20T01:16:24.484Z,3.80
2019-05-20T01:18:57.073Z,5.50
2019-05-20T01:21:29.596Z,6.30
2019-05-20T01:24:03.164Z,2.77
2019-05-20T01:26:35.541Z,4.10
2019-05-20T01:29:08.388Z,5.40
2019-05-20T01:31:40.518Z,4.05
2019-05-20T01:34:12.698Z,5.17
2019-05-20T01:36:45.979Z,8.63
2019-05-20T01:39:18.523Z,3.20
2019-05-20T01:41:51.045Z,3.55
2019-05-20T01:44:23.891Z,4.55
2019-05-20T01:46:56.533Z,3.47
2019-05-20T01:49:29.489Z,3.75
2019-05-20T01:52:02.173Z,3.77
2019-05-20T01:54:34.591Z,3.25
2019-05-20T01:57:07.504Z,8.08
2019-05-20T01:59:40.112Z,6.50
2019-05-20T02:02:13.672Z,4.17
2019-05-20T02:04:46.095Z,4.28
2019-05-20T02:07:18.996Z,4.22
2019-05-20T02:09:52.764Z,4.62
2019-05-20T02:12:25.276Z,7.20
2019-05-20T02:15:03.935Z,4.12
2019-05-20T02:17:36.953Z,6.05
2019-05-20T02:20:09.587Z,6.97
2019-05-20T02:22:42.610Z,6.95
2019-05-20T02:25:16.139Z,5.75
2019-05-20T02:27:48.766Z,5.03
2019-05-20T02:30:21.053Z,5.92
2019-05-20T02:32:54.096Z,2.42
2019-05-20T02:35:26.596Z,7.53
2019-05-20T02:37:59.015Z,6.40
2019-05-20T02:40:31.856Z,4.35
2019-05-20T02:43:04.588Z,6.50
2019-05-20T02:45:38.008Z,6.17
2019-05-20T02:48:10.410Z,4.87
2019-05-20T02:50:43.257Z,4.37
2019-05-20T02:53:15.743Z,3.20
2019-05-20T02:55:48.844Z,3.50
2019-05-20T02:58:21.555Z,5.25
2019-05-20T03:00:54.074Z,4.83
2019-05-20T03:03:26.412Z,3.10
2019-05-20T03:05:59.273Z,4.67
2019-05-20T03:08:31.648Z,4.08
2019-05-20T03:11:04.104Z,4.67
2019-05-20T03:13:36.945Z,6.30
2019-05-20T03:16:09.659Z,7.35
2019-05-20T03:18:41.964Z,6.15
2019-05-20T03:21:14.696Z,5.67
2019-05-20T03:23:47.380Z,5.60
2019-05-20T03:26:19.858Z,4.35
2019-05-20T03:28:53.144Z,5.37
2019-05-20T03:33:57.110Z,12.78
2019-05-20T03:36:29.582Z,6.60
2019-05-20T03:39:02.523Z,5.80
2019-05-20T03:41:35.339Z,4.75
2019-05-20T03:44:08.415Z,5.15
2019-05-20T03:46:42.357Z,5.05
2019-05-20T03:49:15.008Z,5.67
2019-05-20T03:51:47.910Z,4.47
2019-05-20T03:54:20.399Z,5.50
2019-05-20T03:56:53.541Z,4.30
2019-05-20T04:01:57.710Z,4.08
2019-05-20T04:04:30.110Z,3.83
2019-05-20T04:07:02.665Z,3.55
2019-05-20T04:09:35.604Z,5.60
2019-05-20T04:12:08.277Z,4.65
2019-05-20T04:14:40.835Z,4.30
2019-05-20T04:17:13.778Z,5.95
2019-05-20T04:19:46.508Z,3.80
2019-05-20T04:22:19.024Z,4.40
2019-05-20T04:24:52.222Z,8.53
2019-05-20T04:27:24.844Z,3.58
2019-05-20T04:29:57.976Z,4.35
2019-05-20T04:35:20.420Z,5.42
2019-05-20T04:37:39.949Z,4.17
2019-05-20T04:40:13.371Z,5.10
2019-05-20T04:42:45.994Z,7.10
2019-05-20T04:45:18.646Z,5.08
2019-05-20T04:47:51.329Z,5.95
2019-05-20T04:50:24.891Z,9.08
2019-05-20T04:52:57.319Z,6.17
2019-05-20T04:55:29.765Z,5.00
2019-05-20T04:58:02.694Z,6.25
2019-05-20T05:00:56.213Z,4.20
2019-05-20T05:03:28.814Z,8.78
2019-05-20T05:06:01.336Z,4.58
2019-05-20T05:08:34.165Z,5.00
2019-05-20T05:11:06.860Z,6.62
2019-05-20T05:13:39.377Z,6.22
2019-05-20T05:16:12.106Z,7.55
2019-05-20T05:18:44.843Z,7.83
2019-05-20T05:21:18.634Z,6.80
2019-05-20T05:23:59.356Z,9.93
2019-05-20T05:26:25.817Z,14.43
2019-05-20T05:28:58.686Z,10.25
2019-05-20T05:31:31.393Z,6.12
2019-05-20T05:34:03.836Z,7.78
2019-05-20T05:36:36.699Z,7.33
2019-05-20T05:39:09.322Z,10.65
2019-05-20T05:41:42.162Z,8.03
2019-05-20T05:44:14.283Z,8.58
2019-05-20T05:46:47.023Z,8.68
2019-05-20T05:49:19.448Z,5.28
2019-05-20T05:51:52.092Z,10.15
2019-05-20T05:54:24.881Z,6.47
2019-05-20T05:56:57.322Z,7.37
2019-05-20T05:59:30.320Z,7.28
2019-05-20T06:02:02.834Z,7.45
2019-05-20T06:04:35.388Z,5.92
2019-05-20T06:07:08.356Z,6.90
2019-05-20T06:09:41.046Z,9.58
2019-05-20T06:12:13.311Z,6.92
2019-05-20T06:14:46.192Z,5.95
2019-05-20T06:17:18.960Z,5.30
2019-05-20T06:19:51.483Z,5.53
2019-05-20T06:22:24.454Z,6.65
2019-05-20T06:24:57.111Z,9.45
2019-05-20T06:27:30.241Z,5.42
2019-05-20T06:32:34.611Z,7.65
2019-05-20T06:37:42.092Z,3.65
2019-05-20T06:40:15.530Z,6.95
2019-05-20T06:42:48.147Z,5.80
2019-05-20T06:45:20.935Z,8.73
2019-05-20T06:47:53.430Z,3.08
2019-05-20T06:50:29.487Z,2.92
2019-05-20T06:53:00.800Z,2.92
2019-05-20T06:55:33.328Z,3.25
2019-05-20T06:58:06.009Z,2.90
2019-05-20T07:00:39.848Z,3.05
2019-05-20T07:03:12.230Z,6.08
2019-05-20T07:05:44.985Z,4.37
2019-05-20T07:08:17.809Z,5.60
2019-05-20T07:10:50.550Z,5.42
2019-05-20T07:13:23.156Z,3.45
2019-05-20T07:15:55.828Z,4.87
2019-05-20T07:18:28.696Z,3.12
2019-05-20T07:21:02.138Z,5.47
2019-05-20T07:23:35.677Z,2.77
2019-05-20T07:26:08.461Z,2.77
2019-05-20T07:28:40.723Z,4.97
2019-05-20T07:31:13.605Z,6.33
2019-05-20T07:33:46.098Z,3.30
2019-05-20T07:36:18.451Z,2.95
2019-05-20T07:38:51.280Z,3.10
2019-05-20T07:41:23.990Z,2.95
2019-05-20T07:43:56.420Z,5.53
2019-05-20T07:46:29.518Z,4.15
2019-05-20T07:49:02.755Z,4.78
2019-05-20T07:51:35.836Z,4.95
2019-05-20T07:54:09.140Z,5.25
2019-05-20T07:56:44.520Z,4.17
2019-05-20T07:59:18.823Z,5.03
2019-05-20T08:01:52.045Z,4.67
2019-05-20T08:04:24.978Z,6.17
2019-05-20T08:06:57.669Z,4.65
2019-05-20T08:09:30.739Z,4.28
2019-05-20T08:14:35.006Z,3.85
2019-05-20T08:17:07.696Z,2.62
2019-05-20T08:19:40.639Z,2.80
2019-05-20T08:24:43.887Z,2.20
2019-05-20T08:27:16.431Z,4.17
2019-05-20T08:29:49.391Z,3.58
2019-05-20T08:32:22.014Z,4.80
2019-05-20T08:34:55.067Z,8.90
2019-05-20T08:39:59.810Z,3.72
2019-05-20T08:42:32.221Z,6.12
2019-05-20T08:45:05.500Z,3.95
2019-05-20T08:47:37.994Z,5.95
2019-05-20T08:50:15.954Z,3.75
2019-05-20T08:52:45.268Z,4.50
2019-05-20T08:55:18.234Z,6.30
2019-05-20T09:00:24.558Z,3.12
2019-05-20T09:02:57.789Z,5.00
2019-05-20T09:05:30.511Z,6.97
2019-05-20T09:08:04.108Z,4.50
2019-05-20T09:10:39.457Z,4.20
2019-05-20T09:13:12.339Z,4.50
2019-05-20T09:15:45.561Z,2.67
2019-05-20T09:18:18.455Z,2.77
2019-05-20T09:20:50.967Z,6.62
2019-05-20T09:23:23.648Z,3.92
2019-05-20T09:25:56.511Z,3.95
2019-05-20T09:28:29.133Z,4.92
2019-05-20T09:31:02.387Z,4.97
2019-05-20T09:33:35.740Z,5.10
2019-05-20T09:36:08.605Z,2.98
2019-05-20T09:38:41.470Z,4.83
2019-05-20T09:43:44.987Z,4.28
2019-05-20T09:46:18.008Z,3.42
2019-05-20T09:48:50.501Z,2.60
2019-05-20T09:51:23.020Z,4.37
2019-05-20T09:53:55.908Z,6.20
2019-05-20T09:59:00.478Z,6.05
2019-05-20T10:01:33.471Z,6.37
2019-05-20T10:06:37.587Z,6.97
2019-05-20T10:09:10.267Z,4.58
2019-05-20T10:11:43.287Z,3.33
2019-05-20T10:16:48.313Z,5.08
2019-05-20T10:19:21.272Z,5.95
2019-05-20T10:22:04.634Z,4.62
2019-05-20T10:24:37.611Z,3.80
2019-05-20T10:29:41.289Z,6.40
2019-05-20T10:32:14.204Z,6.42
2019-05-20T10:34:46.787Z,4.37
2019-05-20T10:37:19.448Z,12.33
2019-05-20T10:39:52.445Z,5.85
2019-05-20T10:42:24.975Z,3.65
2019-05-20T10:44:57.910Z,4.15
2019-05-20T10:47:30.728Z,3.98
2019-05-20T10:50:03.578Z,7.08
2019-05-20T10:52:36.540Z,5.85
2019-05-20T10:55:09.579Z,5.80
2019-05-20T10:57:42.429Z,6.65
2019-05-20T11:00:16.808Z,7.45
2019-05-20T11:02:49.208Z,6.62
2019-05-20T11:05:21.733Z,4.97
2019-05-20T11:07:54.712Z,4.05
2019-05-20T11:12:59.083Z,5.83
2019-05-20T11:15:31.954Z,3.75
2019-05-20T11:18:04.474Z,5.17
2019-05-20T11:20:37.285Z,6.55
2019-05-20T11:23:09.850Z,7.33
2019-05-20T11:25:42.299Z,4.33
2019-05-20T11:28:15.114Z,3.60
2019-05-20T11:30:47.752Z,9.80
2019-05-20T11:33:20.272Z,6.75
2019-05-20T11:35:52.663Z,4.45
2019-05-20T11:38:25.501Z,6.87
2019-05-20T11:40:58.061Z,2.67
2019-05-20T11:43:30.562Z,4.55
2019-05-20T11:46:03.581Z,6.70
2019-05-20T11:51:06.895Z,5.47
2019-05-20T11:53:39.254Z,4.75
2019-05-20T11:56:12.256Z,3.77
2019-05-20T11:58:45.326Z,4.08
2019-05-20T12:01:17.969Z,2.55
2019-05-20T12:03:50.484Z,2.67
2019-05-20T12:06:23.398Z,5.20
2019-05-20T12:08:55.958Z,3.17
2019-05-20T12:11:28.907Z,2.20
2019-05-20T12:16:33.155Z,3.45
2019-05-20T12:19:05.639Z,4.28
2019-05-20T12:21:38.091Z,3.52
2019-05-20T12:24:11.083Z,5.28
2019-05-20T12:26:43.724Z,3.02
2019-05-20T12:29:16.161Z,2.50
2019-05-20T12:31:48.932Z,2.52
2019-05-20T12:34:21.641Z,6.47
2019-05-20T12:36:54.675Z,4.47
2019-05-20T12:39:27.450Z,5.53
2019-05-20T12:42:00.064Z,4.28
2019-05-20T12:44:32.518Z,2.95
2019-05-20T12:47:05.458Z,2.95
2019-05-20T12:49:38.054Z,9.48
2019-05-20T12:52:11.034Z,4.45
2019-05-20T12:57:15.802Z,2.92
2019-05-20T12:59:48.401Z,5.12
2019-05-20T13:02:24.364Z,8.35
2019-05-20T13:04:56.761Z,7.62
2019-05-20T13:07:29.859Z,5.30
2019-05-20T13:12:36.396Z,7.37
2019-05-20T13:15:11.778Z,5.97
2019-05-20T13:17:45.531Z,5.78
2019-05-20T13:20:18.549Z,3.67
2019-05-20T13:22:51.148Z,7.50
2019-05-20T13:25:24.422Z,7.12
2019-05-20T13:30:29.211Z,5.53
2019-05-20T13:33:01.813Z,5.80
2019-05-20T13:35:34.653Z,7.15
2019-05-20T13:38:07.394Z,4.05
2019-05-20T13:40:46.288Z,5.25
2019-05-20T13:43:14.070Z,3.25
2019-05-20T13:48:20.450Z,4.42
2019-05-20T13:50:56.363Z,5.05
2019-05-20T13:53:29.211Z,14.25
2019-05-20T13:56:02.243Z,3.80
2019-05-20T13:58:38.156Z,5.30
2019-05-20T14:01:10.559Z,3.98
2019-05-20T14:03:43.455Z,6.35
2019-05-20T14:06:16.121Z,3.00
2019-05-20T14:08:48.487Z,4.97
2019-05-20T14:11:33.778Z,4.30
2019-05-20T14:13:55.468Z,3.22
2019-05-20T14:16:27.849Z,3.08
2019-05-20T14:19:00.843Z,5.10
2019-05-20T14:21:33.330Z,4.70
2019-05-20T14:24:06.335Z,7.37
2019-05-20T14:26:38.854Z,5.72
2019-05-20T14:29:11.441Z,6.83
2019-05-20T14:31:44.267Z,5.00
2019-05-20T14:34:16.864Z,4.45
2019-05-20T14:36:52.625Z,3.95
2019-05-20T14:39:23.337Z,4.60
2019-05-20T14:41:55.242Z,3.10
2019-05-20T14:44:27.827Z,5.47
2019-05-20T14:47:00.714Z,6.85
2019-05-20T14:49:33.498Z,7.35
2019-05-20T14:52:06.010Z,8.08
2019-05-20T14:54:38.843Z,4.72
2019-05-20T14:57:11.468Z,4.60
2019-05-20T14:59:44.258Z,3.42
2019-05-20T15:02:16.968Z,3.12
2019-05-20T15:04:49.537Z,3.33
2019-05-20T15:07:30.197Z,2.27
2019-05-20T15:09:56.630Z,3.27
2019-05-20T15:12:29.351Z,3.47
2019-05-20T15:15:02.171Z,3.12
2019-05-20T15:17:34.134Z,4.03
2019-05-20T15:20:07.006Z,3.67
2019-05-20T15:22:39.834Z,5.55
2019-05-20T15:25:12.544Z,4.03
2019-05-20T15:27:45.476Z,2.70
2019-05-20T15:30:17.991Z,2.60
2019-05-20T15:32:50.606Z,3.85
2019-05-20T15:35:23.776Z,5.28
2019-05-20T15:37:56.650Z,2.77
2019-05-20T15:40:29.188Z,4.78
2019-05-20T15:43:02.255Z,3.98
2019-05-20T15:48:05.674Z,4.50
2019-05-20T15:50:38.440Z,3.40
2019-05-20T15:53:12.460Z,3.85
2019-05-20T15:55:45.662Z,3.40
2019-05-20T15:58:18.330Z,6.72
2019-05-20T16:00:50.635Z,7.05
2019-05-20T16:03:23.542Z,121.53
2019-05-20T16:05:59.783Z,115.20
2019-05-20T16:08:31.217Z,77.92
2019-05-20T16:11:06.621Z,37.03
2019-05-20T16:13:38.459Z,6.72
2019-05-20T16:16:13.147Z,6.50
2019-05-20T16:18:46.083Z,8.53
2019-05-20T16:23:49.792Z,5.37
2019-05-20T16:26:22.639Z,6.95
2019-05-20T16:28:54.806Z,11.40
2019-05-20T16:31:27.291Z,8.65
2019-05-20T16:33:59.994Z,5.60
2019-05-20T16:36:32.908Z,3.42
2019-05-20T16:39:06.240Z,7.35
2019-05-20T16:41:39.064Z,5.85
2019-05-20T16:44:12.110Z,5.35
2019-05-20T16:46:44.724Z,4.33
2019-05-20T16:49:18.653Z,11.55
2019-05-20T16:51:51.605Z,22.30
2019-05-20T16:54:24.355Z,10.48
2019-05-20T16:56:57.167Z,9.63
2019-05-20T16:59:29.903Z,6.08
2019-05-20T17:02:02.510Z,6.97
2019-05-20T17:04:35.600Z,8.35
2019-05-20T17:07:08.178Z,6.40
2019-05-20T17:09:40.656Z,7.17
2019-05-20T17:12:12.984Z,6.10
2019-05-20T17:14:45.833Z,6.37
2019-05-20T17:17:18.396Z,9.20
2019-05-20T17:19:51.308Z,3.27
2019-05-20T17:22:25.089Z,4.40
2019-05-20T17:24:57.895Z,6.12
2019-05-20T17:27:30.864Z,7.60
2019-05-20T17:30:04.544Z,10.13
2019-05-20T17:32:39.178Z,10.68
2019-05-20T17:35:12.846Z,14.28
2019-05-20T17:37:45.814Z,11.63
2019-05-20T17:40:18.902Z,12.33
2019-05-20T17:42:51.682Z,15.10
2019-05-20T17:45:24.394Z,21.25
2019-05-20T17:47:57.681Z,21.45
2019-05-20T17:53:02.139Z,28.15
2019-05-20T17:55:34.951Z,20.72
2019-05-20T17:58:07.807Z,12.88
2019-05-20T18:00:40.434Z,12.00
2019-05-20T18:03:12.980Z,11.75
2019-05-20T18:05:45.836Z,10.95
2019-05-20T18:08:18.308Z,19.25
2019-05-20T18:10:53.723Z,15.23
2019-05-20T18:13:26.889Z,10.50
2019-05-20T18:15:59.360Z,8.08
2019-05-20T18:18:31.845Z,8.98
2019-05-20T18:21:04.781Z,9.60
2019-05-20T18:23:37.179Z,13.22
2019-05-20T18:26:09.755Z,10.03
2019-05-20T18:28:42.083Z,8.90
2019-05-20T18:31:29.660Z,7.37
2019-05-20T18:33:48.920Z,7.65
2019-05-20T18:36:21.454Z,9.07
2019-05-20T18:38:54.174Z,9.98
2019-05-20T18:41:26.934Z,12.50
2019-05-20T18:43:59.908Z,7.30
2019-05-20T18:46:32.455Z,6.22
2019-05-20T18:49:05.068Z,7.37
2019-05-20T18:51:37.715Z,11.78
2019-05-20T18:54:10.614Z,6.42
2019-05-20T18:56:43.417Z,5.10
2019-05-20T18:59:16.618Z,5.42
2019-05-20T19:02:03.864Z,5.87
2019-05-20T19:04:23.996Z,5.95
2019-05-20T19:06:55.969Z,5.58
2019-05-20T19:09:28.657Z,6.53
2019-05-20T19:12:01.936Z,6.03
2019-05-20T19:17:06.049Z,6.62
2019-05-20T19:19:38.688Z,4.87
2019-05-20T19:22:11.737Z,5.65
2019-05-20T19:24:44.416Z,5.37
2019-05-20T19:27:17.199Z,7.42
2019-05-20T19:29:51.187Z,7.97
2019-05-20T19:32:24.991Z,10.35
2019-05-20T19:34:58.834Z,6.90
2019-05-20T19:37:31.784Z,5.95
2019-05-20T19:40:38.137Z,6.92
2019-05-20T19:43:10.728Z,6.72
2019-05-20T19:45:43.958Z,5.70
2019-05-20T19:48:16.889Z,7.67
2019-05-20T19:50:50.499Z,9.43
2019-05-20T19:53:23.905Z,11.10
2019-05-20T19:58:28.376Z,9.65
2019-05-20T20:01:02.360Z,5.10
2019-05-20T20:03:35.205Z,6.10
2019-05-20T20:06:07.920Z,6.20
2019-05-20T20:08:40.425Z,5.40
2019-05-20T20:11:13.171Z,6.03
2019-05-20T20:13:45.988Z,5.92
2019-05-20T20:16:18.459Z,5.55
2019-05-20T20:18:51.340Z,6.62
2019-05-20T20:21:23.862Z,6.37
2019-05-20T20:23:56.532Z,6.20
2019-05-20T20:26:29.497Z,4.17
2019-05-20T20:29:02.053Z,6.40
2019-05-20T20:31:34.722Z,4.47
2019-05-20T20:34:07.384Z,6.83
2019-05-20T20:36:39.773Z,6.70
2019-05-20T20:39:12.968Z,9.78
2019-05-20T20:44:17.120Z,7.35
2019-05-20T20:46:49.848Z,6.33
2019-05-20T20:49:22.828Z,6.33
2019-05-20T20:51:55.011Z,5.47
2019-05-20T20:54:27.504Z,5.92
2019-05-20T20:57:00.042Z,7.40
2019-05-20T20:59:32.817Z,6.70
2019-05-20T21:02:05.662Z,5.33
2019-05-20T21:04:38.650Z,4.87
2019-05-20T21:07:11.321Z,5.35
2019-05-20T21:09:44.393Z,4.20
2019-05-20T21:12:17.106Z,3.87
2019-05-20T21:14:50.033Z,2.72
2019-05-20T21:17:22.740Z,3.65
2019-05-20T21:19:55.072Z,3.08
2019-05-20T21:22:27.851Z,2.67
2019-05-20T21:25:00.450Z,3.85
2019-05-20T21:27:33.089Z,6.28
2019-05-20T21:30:06.162Z,5.50
2019-05-20T21:35:10.217Z,2.33
2019-05-20T21:37:42.682Z,3.83
2019-05-20T21:40:15.208Z,2.25
2019-05-20T21:42:48.021Z,2.85
2019-05-20T21:45:20.708Z,8.43
2019-05-20T21:47:53.732Z,4.58
2019-05-20T21:50:26.286Z,5.17
2019-05-20T21:52:58.952Z,2.90
2019-05-20T21:55:31.730Z,3.72
2019-05-20T21:58:04.490Z,2.92
2019-05-20T22:00:56.368Z,2.83
2019-05-20T22:03:29.066Z,5.03
2019-05-20T22:06:02.016Z,6.35
2019-05-20T22:08:34.559Z,7.42
2019-05-20T22:11:07.108Z,7.87
2019-05-20T22:13:39.975Z,5.15
2019-05-20T22:16:12.555Z,4.30
2019-05-20T22:18:44.817Z,3.70
2019-05-20T22:21:19.345Z,4.28
2019-05-20T22:23:58.133Z,6.22
2019-05-20T22:26:30.482Z,8.40
2019-05-20T22:29:03.559Z,4.75
2019-05-20T22:31:36.015Z,7.28
2019-05-20T22:34:09.051Z,6.62
2019-05-20T22:36:41.683Z,6.40
2019-05-20T22:39:14.385Z,4.53
2019-05-20T22:41:47.224Z,4.55
2019-05-20T22:44:19.747Z,3.37
2019-05-20T22:46:52.822Z,2.80
2019-05-20T22:49:26.333Z,4.55
2019-05-20T22:51:59.095Z,3.12
2019-05-20T22:54:31.611Z,3.27
2019-05-20T22:57:04.609Z,3.05
2019-05-20T22:59:37.441Z,3.02
2019-05-20T23:02:10.458Z,2.47
2019-05-20T23:04:43.093Z,3.22
2019-05-20T23:07:15.044Z,4.03
2019-05-20T23:09:47.279Z,2.77
2019-05-20T23:12:19.773Z,2.98
2019-05-20T23:14:52.425Z,4.08
2019-05-20T23:17:26.115Z,2.02
2019-05-20T23:19:58.826Z,3.30
2019-05-20T23:22:32.484Z,3.12
2019-05-20T23:25:05.007Z,4.40
2019-05-20T23:27:38.299Z,2.17
2019-05-20T23:30:11.021Z,2.65
2019-05-20T23:32:43.782Z,2.12
2019-05-20T23:35:16.366Z,2.12
2019-05-20T23:37:49.067Z,3.22
2019-05-20T23:40:21.373Z,2.50
2019-05-20T23:42:54.378Z,1.70
2019-05-20T23:45:27.059Z,1.22
2019-05-20T23:47:59.980Z,2.35
2019-05-20T23:50:32.593Z,2.20
2019-05-20T23:53:05.630Z,1.37
2019-05-20T23:55:38.145Z,2.83
2019-05-20T23:58:10.943Z,1.57
